Time;durP1;ratioP1;P1;durP2;ratioP2;P2;SDS_P1;SDS_P2;PMS_P1;PMS_P2;Temp;Humidity;BMP_temperature;BMP_pressure;BME280_temperature;BME280_humidity;BME280_pressure;Samples;Min_cycle;Max_cycle;Signal;HPM_P1;HPM_P2
2024/03/03 00:02:12;;;;;;;34.88;32.78;;;;;;;3.85;100.00;100986.22;5029108;28;20048;-73
2024/03/03 00:04:39;;;;;;;37.17;34.67;;;;;;;3.89;100.00;100977.84;5029047;28;20084;-73
2024/03/03 00:07:06;;;;;;;33.65;31.45;;;;;;;4.06;100.00;100985.84;5026104;28;20050;-72
2024/03/03 00:09:33;;;;;;;33.15;31.02;;;;;;;4.04;100.00;100980.72;5025233;28;20051;-73
2024/03/03 00:12:00;;;;;;;36.40;33.20;;;;;;;3.55;100.00;100977.00;5026411;28;20528;-72
2024/03/03 00:14:27;;;;;;;34.15;31.77;;;;;;;3.88;100.00;100970.97;5027676;28;20053;-73
2024/03/03 00:16:56;;;;;;;33.95;31.85;;;;;;;4.01;100.00;100969.72;5027730;28;20054;-72
2024/03/03 00:19:23;;;;;;;38.83;36.13;;;;;;;3.77;100.00;100965.97;5028537;28;20056;-72
2024/03/03 00:21:50;;;;;;;33.58;31.38;;;;;;;3.42;100.00;100956.41;5025871;28;20049;-73
2024/03/03 00:24:17;;;;;;;39.00;35.67;;;;;;;3.18;100.00;100954.41;5030944;28;20433;-73
2024/03/03 00:26:44;;;;;;;36.47;33.97;;;;;;;3.31;100.00;100954.00;5027335;28;20194;-73
2024/03/03 00:29:13;;;;;;;35.58;32.92;;;;;;;3.24;100.00;100960.81;5027201;28;20746;-72
2024/03/03 00:31:44;;;;;;;34.45;31.83;;;;;;;3.70;100.00;100953.63;5027716;28;20061;-72
2024/03/03 00:34:14;;;;;;;34.35;31.90;;;;;;;3.72;100.00;100957.72;5024434;28;20049;-72
2024/03/03 00:36:41;;;;;;;35.78;33.33;;;;;;;3.64;100.00;100953.25;5019991;28;20046;-72
2024/03/03 00:39:08;;;;;;;38.10;35.10;;;;;;;3.75;100.00;100959.22;5024033;28;20080;-72
2024/03/03 00:41:36;;;;;;;37.08;34.55;;;;;;;3.25;100.00;100952.81;5027398;28;20480;-73
2024/03/03 00:44:11;;;;;;;40.13;36.53;;;;;;;3.45;100.00;100958.72;5026112;28;20517;-73
2024/03/03 00:46:38;;;;;;;33.60;31.30;;;;;;;3.46;100.00;100957.72;5025994;28;20057;-73
2024/03/03 00:49:04;;;;;;;38.33;34.97;;;;;;;3.52;100.00;100956.28;5027790;28;20461;-73
2024/03/03 00:51:33;;;;;;;35.00;32.42;;;;;;;3.48;100.00;100958.41;5026864;28;20052;-72
2024/03/03 00:54:00;;;;;;;39.78;36.80;;;;;;;3.44;100.00;100954.41;5027248;28;20048;-73
2024/03/03 00:56:26;;;;;;;35.35;32.80;;;;;;;3.55;100.00;100951.53;5025478;28;20057;-73
2024/03/03 00:58:53;;;;;;;33.00;30.67;;;;;;;3.48;100.00;100952.31;5026593;28;20049;-73
2024/03/03 01:01:20;;;;;;;32.17;30.13;;;;;;;3.48;100.00;100953.16;5029489;28;20058;-73
2024/03/03 01:03:47;;;;;;;30.50;28.50;;;;;;;3.63;100.00;100945.50;5028845;28;20128;-72
2024/03/03 01:06:14;;;;;;;33.05;30.75;;;;;;;3.56;100.00;100941.88;5031352;28;20532;-71
2024/03/03 01:08:44;;;;;;;35.80;33.33;;;;;;;3.41;100.00;100941.59;5025098;28;20597;-70
2024/03/03 01:11:11;;;;;;;36.65;33.50;;;;;;;3.45;100.00;100942.97;5028336;28;20528;-73
2024/03/03 01:13:38;;;;;;;32.05;29.58;;;;;;;3.63;100.00;100943.72;5031974;28;20628;-73
2024/03/03 01:16:06;;;;;;;35.33;32.97;;;;;;;3.49;100.00;100951.34;5031622;28;20199;-73
2024/03/03 01:18:34;;;;;;;42.97;39.75;;;;;;;3.37;100.00;100942.88;5031699;28;20091;-72
2024/03/03 01:21:02;;;;;;;33.15;30.90;;;;;;;3.43;100.00;100942.28;5028883;28;20049;-72
2024/03/03 01:23:29;;;;;;;34.45;31.98;;;;;;;3.44;100.00;100944.72;5032104;28;20428;-73
2024/03/03 01:25:58;;;;;;;37.47;34.70;;;;;;;3.48;100.00;100940.03;5027357;28;20095;-72
2024/03/03 01:28:27;;;;;;;36.47;33.60;;;;;;;3.34;100.00;100941.38;5031646;28;20093;-71
2024/03/03 01:30:55;;;;;;;38.72;35.53;;;;;;;3.31;100.00;100941.69;5028641;28;20058;-71
2024/03/03 01:33:25;;;;;;;37.80;35.28;;;;;;;3.47;100.00;100954.09;5025301;28;20064;-70
2024/03/03 01:35:55;;;;;;;34.33;31.42;;;;;;;3.42;100.00;100948.50;5025729;28;20140;-71
2024/03/03 01:38:26;;;;;;;34.55;31.80;;;;;;;3.03;100.00;100950.66;5018622;28;20435;-70
2024/03/03 01:40:53;;;;;;;32.95;30.55;;;;;;;3.24;100.00;100950.31;5028723;28;20512;-71
2024/03/03 01:43:21;;;;;;;40.30;37.30;;;;;;;3.50;100.00;100951.19;5027689;28;20060;-70
2024/03/03 01:45:48;;;;;;;41.60;38.85;;;;;;;3.58;100.00;100953.88;5031199;28;20136;-70
2024/03/03 01:48:15;;;;;;;36.13;33.03;;;;;;;3.63;100.00;100954.22;5030007;28;20045;-72
2024/03/03 01:50:43;;;;;;;34.08;31.48;;;;;;;3.42;100.00;100957.22;5027819;28;20508;-72
2024/03/03 01:53:13;;;;;;;38.85;36.10;;;;;;;3.42;100.00;100956.41;5028894;28;20057;-72
2024/03/03 01:55:40;;;;;;;40.17;36.90;;;;;;;3.35;100.00;100950.91;5029584;28;20509;-72
2024/03/03 01:58:18;;;;;;;42.47;39.58;;;;;;;3.42;100.00;100954.59;5030056;28;20521;-73
2024/03/03 02:00:47;;;;;;;33.47;31.25;;;;;;;3.28;100.00;100956.94;5029420;28;20057;-72
2024/03/03 02:03:14;;;;;;;31.15;29.15;;;;;;;3.39;100.00;100956.69;5028849;28;20059;-73
2024/03/03 02:05:42;;;;;;;35.25;32.72;;;;;;;3.44;100.00;100954.41;5023274;28;20049;-73
2024/03/03 02:08:10;;;;;;;37.78;34.83;;;;;;;3.27;100.00;100947.38;5029838;28;20049;-71
2024/03/03 02:10:38;;;;;;;39.08;36.42;;;;;;;3.10;100.00;100943.84;5029033;28;20054;-70
2024/03/03 02:13:05;;;;;;;36.55;33.80;;;;;;;3.40;100.00;100953.91;5028891;28;20057;-73
2024/03/03 02:15:32;;;;;;;37.63;34.83;;;;;;;3.36;100.00;100949.09;5023809;28;20148;-73
2024/03/03 02:18:00;;;;;;;37.00;34.13;;;;;;;3.43;100.00;100956.22;5026342;28;20049;-72
2024/03/03 02:20:28;;;;;;;37.65;34.90;;;;;;;3.38;100.00;100950.59;5020596;28;20049;-73
2024/03/03 02:22:57;;;;;;;42.63;39.42;;;;;;;3.27;100.00;100950.00;5030816;28;20045;-73
2024/03/03 02:25:26;;;;;;;35.42;33.13;;;;;;;3.46;100.00;100943.78;5029221;28;20049;-73
2024/03/03 02:28:00;;;;;;;37.85;35.35;;;;;;;3.41;100.00;100950.28;5028205;28;20057;-73
2024/03/03 02:30:27;;;;;;;39.35;36.58;;;;;;;3.42;100.00;100949.34;5020251;28;20049;-70
2024/03/03 02:32:56;;;;;;;38.90;36.30;;;;;;;3.39;100.00;100956.69;5019058;28;20050;-71
2024/03/03 02:35:26;;;;;;;39.58;36.72;;;;;;;3.40;100.00;100951.28;5024269;28;20046;-70
2024/03/03 02:37:55;;;;;;;39.38;36.88;;;;;;;3.34;100.00;100957.16;5027799;28;20718;-71
2024/03/03 02:40:24;;;;;;;40.45;36.53;;;;;;;3.44;100.00;100943.91;5017478;28;20600;-72
2024/03/03 02:42:56;;;;;;;38.47;35.95;;;;;;;3.50;100.00;100951.19;5019389;28;20131;-71
2024/03/03 02:45:24;;;;;;;40.25;37.35;;;;;;;3.07;100.00;100954.63;5029323;28;20501;-72
2024/03/03 02:47:53;;;;;;;41.00;38.08;;;;;;;2.94;100.00;100952.41;5025738;28;20053;-71
2024/03/03 02:50:20;;;;;;;33.30;31.00;;;;;;;3.03;100.00;100953.28;5025734;28;20053;-72
2024/03/03 02:52:47;;;;;;;35.63;33.10;;;;;;;3.34;100.00;100953.69;5029907;28;20492;-72
2024/03/03 02:55:14;;;;;;;36.55;34.15;;;;;;;3.60;100.00;100953.69;5027862;28;20061;-71
2024/03/03 02:57:42;;;;;;;39.92;37.28;;;;;;;3.49;100.00;100953.97;5022704;28;20049;-71
2024/03/03 03:00:11;;;;;;;43.50;39.78;;;;;;;3.37;100.00;100953.41;5024509;28;20053;-71
2024/03/03 03:02:38;;;;;;;41.08;38.47;;;;;;;3.28;100.00;100954.31;5023353;28;20053;-71
2024/03/03 03:05:05;;;;;;;39.20;36.50;;;;;;;3.45;100.00;100950.84;5028695;28;20057;-71
2024/03/03 03:07:32;;;;;;;38.60;35.58;;;;;;;3.16;100.00;100951.91;5025616;28;20057;-71
2024/03/03 03:10:01;;;;;;;36.30;33.90;;;;;;;3.42;100.00;100949.34;5027830;28;20064;-70
2024/03/03 03:12:28;;;;;;;37.47;34.90;;;;;;;3.47;100.00;100948.84;5026475;28;20057;-73
2024/03/03 03:15:00;;;;;;;38.50;35.83;;;;;;;3.40;100.00;100953.91;5019497;28;20159;-73
2024/03/03 03:17:36;;;;;;;38.08;35.38;;;;;;;3.26;100.00;100949.19;5025526;28;20057;-73
2024/03/03 03:20:07;;;;;;;35.95;33.55;;;;;;;3.22;100.00;100950.50;5019763;28;20049;-71
2024/03/03 03:22:34;;;;;;;35.60;33.30;;;;;;;3.12;100.00;100952.38;5032276;28;20706;-71
2024/03/03 03:25:01;;;;;;;38.17;35.70;;;;;;;3.20;100.00;100952.44;5028567;28;20049;-71
2024/03/03 03:27:28;;;;;;;39.40;36.42;;;;;;;3.32;100.00;100958.28;5026924;28;20046;-72
2024/03/03 03:29:55;;;;;;;40.28;37.45;;;;;;;3.42;100.00;100951.16;5027205;28;20056;-73
2024/03/03 03:32:23;;;;;;;37.50;34.97;;;;;;;3.52;100.00;100959.72;5029618;28;20483;-71
2024/03/03 03:34:51;;;;;;;38.42;35.67;;;;;;;3.37;100.00;100953.41;5020252;28;20829;-73
2024/03/03 03:37:18;;;;;;;37.45;34.95;;;;;;;3.29;100.00;100958.56;5014304;28;20160;-73
2024/03/03 03:39:46;;;;;;;40.20;37.17;;;;;;;2.96;100.00;100959.13;5024055;28;20054;-70
2024/03/03 03:42:13;;;;;;;38.13;35.22;;;;;;;3.05;100.00;100961.81;5017056;28;20050;-70
2024/03/03 03:44:40;;;;;;;38.47;35.88;;;;;;;2.97;100.00;100957.34;5023330;28;20057;-72
2024/03/03 03:47:07;;;;;;;40.40;36.90;;;;;;;3.09;100.00;100960.56;5027329;28;20052;-72
2024/03/03 03:49:35;;;;;;;41.83;38.92;;;;;;;3.20;100.00;100952.44;5028536;28;20041;-72
2024/03/03 03:52:05;;;;;;;51.15;47.40;;;;;;;3.31;100.00;100959.25;5029136;28;20042;-73
2024/03/03 03:54:33;;;;;;;40.67;37.92;;;;;;;3.34;100.00;100965.03;5025012;28;20730;-73
2024/03/03 03:57:01;;;;;;;34.97;32.28;;;;;;;3.34;100.00;100954.53;5022893;28;20436;-71
2024/03/03 03:59:29;;;;;;;36.00;33.53;;;;;;;3.33;100.00;100968.63;5026751;28;20092;-70
2024/03/03 04:01:58;;;;;;;36.65;34.15;;;;;;;3.34;100.00;100964.19;5025894;28;20602;-70
2024/03/03 04:04:27;;;;;;;38.17;35.05;;;;;;;3.15;100.00;100960.78;5025636;28;20048;-71
2024/03/03 04:06:56;;;;;;;41.40;38.60;;;;;;;3.06;100.00;100974.81;5027264;28;20505;-71
2024/03/03 04:09:23;;;;;;;43.80;35.50;;;;;;;3.19;100.00;100971.78;5026799;28;20058;-71
2024/03/03 04:11:52;;;;;;;33.50;31.30;;;;;;;3.21;100.00;100973.28;5026440;28;20134;-71
2024/03/03 04:14:18;;;;;;;36.10;33.25;;;;;;;3.19;100.00;100982.28;5021646;28;20054;-70
2024/03/03 04:16:48;;;;;;;40.75;38.15;;;;;;;2.58;100.00;100994.31;5026290;28;20049;-71
2024/03/03 04:19:15;;;;;;;37.67;34.55;;;;;;;2.86;100.00;100989.84;5025783;28;20041;-71
2024/03/03 04:21:42;;;;;;;34.58;32.25;;;;;;;2.96;100.00;100992.41;5028495;28;20504;-72
2024/03/03 04:24:11;;;;;;;33.40;31.20;;;;;;;2.82;100.00;100987.69;5025937;28;20053;-70
2024/03/03 04:26:38;;;;;;;36.83;34.42;;;;;;;2.60;100.00;100994.97;5026795;28;20541;-70
2024/03/03 04:29:06;;;;;;;35.78;33.22;;;;;;;2.63;100.00;100997.34;5025187;28;20049;-72
2024/03/03 04:31:33;;;;;;;34.70;32.30;;;;;;;2.83;100.00;100999.84;5026228;28;20134;-73
2024/03/03 04:34:00;;;;;;;33.95;31.75;;;;;;;2.80;100.00;101000.94;5016833;28;20054;-73
2024/03/03 04:36:28;;;;;;;37.35;31.55;;;;;;;2.27;100.00;100999.88;5024932;28;20053;-71
2024/03/03 04:38:56;;;;;;;34.83;32.47;;;;;;;2.02;100.00;101000.50;5031460;28;20065;-72
2024/03/03 04:41:24;;;;;;;33.90;31.50;;;;;;;1.92;100.00;101003.16;5030912;28;20045;-72
2024/03/03 04:43:51;;;;;;;35.30;31.95;;;;;;;1.96;100.00;101006.31;5027200;28;20046;-72
2024/03/03 04:46:19;;;;;;;36.45;33.78;;;;;;;2.22;100.00;101006.50;5030228;28;20187;-73
2024/03/03 04:48:46;;;;;;;33.38;31.02;;;;;;;2.41;100.00;101002.97;5031997;28;20605;-73
2024/03/03 04:51:13;;;;;;;30.17;28.08;;;;;;;2.63;100.00;101009.59;5031752;28;20725;-73
2024/03/03 04:53:42;;;;;;;32.10;29.90;;;;;;;2.64;100.00;101019.97;5029628;28;20140;-72
2024/03/03 04:56:09;;;;;;;35.50;33.00;;;;;;;2.70;100.00;101014.13;5030868;28;20481;-73
2024/03/03 04:58:37;;;;;;;38.22;35.67;;;;;;;2.74;100.00;101018.09;5013608;28;20712;-72
2024/03/03 05:01:11;;;;;;;36.58;33.30;;;;;;;2.80;100.00;101024.56;5028208;28;20110;-73
2024/03/03 05:03:43;;;;;;;33.65;31.35;;;;;;;2.75;100.00;101019.78;5031374;28;20057;-72
2024/03/03 05:06:10;;;;;;;31.40;29.20;;;;;;;2.60;100.00;101017.75;5028258;28;20057;-72
2024/03/03 05:08:38;;;;;;;31.15;28.77;;;;;;;2.69;100.00;101019.50;5024480;28;20432;-72
2024/03/03 05:11:06;;;;;;;30.23;27.85;;;;;;;2.33;100.00;101029.94;5031286;28;20888;-73
2024/03/03 05:13:33;;;;;;;35.42;33.15;;;;;;;2.01;100.00;101018.03;5031505;28;20540;-72
2024/03/03 05:16:02;;;;;;;30.52;28.33;;;;;;;2.11;100.00;101025.03;5026489;28;20441;-72
2024/03/03 05:18:29;;;;;;;31.17;28.85;;;;;;;2.22;100.00;101032.72;5029570;28;20061;-72
2024/03/03 05:20:57;;;;;;;34.33;31.75;;;;;;;2.19;100.00;101031.22;5030907;28;20046;-70
2024/03/03 05:23:24;;;;;;;40.90;37.85;;;;;;;2.45;100.00;101041.03;5031552;28;20094;-70
2024/03/03 05:25:51;;;;;;;25.33;23.58;;;;;;;2.15;100.00;101042.94;5028822;28;20460;-70
2024/03/03 05:28:19;;;;;;;28.40;26.35;;;;;;;2.23;100.00;101037.81;5030390;28;20440;-71
2024/03/03 05:30:46;;;;;;;29.50;27.25;;;;;;;2.38;100.00;101043.41;5029016;28;20069;-71
2024/03/03 05:33:16;;;;;;;29.42;26.65;;;;;;;2.65;100.00;101042.59;5025536;28;20052;-70
2024/03/03 05:35:43;;;;;;;29.63;27.63;;;;;;;2.34;100.00;101036.00;5026410;28;20095;-72
2024/03/03 05:38:09;;;;;;;30.83;28.73;;;;;;;2.67;100.00;101043.28;5028877;28;20049;-72
2024/03/03 05:40:36;;;;;;;30.67;28.58;;;;;;;2.73;100.00;101037.44;5026515;28;20445;-72
2024/03/03 05:43:03;;;;;;;30.25;27.83;;;;;;;2.69;100.00;101035.25;5030982;28;20064;-72
2024/03/03 05:45:30;;;;;;;32.28;30.08;;;;;;;2.67;100.00;101052.94;5030875;28;20053;-72
2024/03/03 05:47:57;;;;;;;30.75;28.42;;;;;;;2.78;100.00;101044.03;5030586;28;20445;-73
2024/03/03 05:50:25;;;;;;;32.20;30.02;;;;;;;3.07;100.00;101052.56;5027654;28;20402;-72
2024/03/03 05:52:56;;;;;;;32.90;30.70;;;;;;;3.12;100.00;101057.38;5030478;28;20046;-72
2024/03/03 05:55:23;;;;;;;35.75;33.33;;;;;;;3.29;100.00;101055.72;5030342;28;20045;-72
2024/03/03 05:57:50;;;;;;;33.65;31.35;;;;;;;3.45;100.00;101069.00;5030309;28;20048;-72
2024/03/03 06:00:17;;;;;;;30.58;28.52;;;;;;;3.58;100.00;101066.81;5030870;28;20041;-73
2024/03/03 06:02:44;;;;;;;33.92;31.63;;;;;;;3.46;100.00;101061.94;5030228;28;20041;-70
2024/03/03 06:05:13;;;;;;;33.92;31.65;;;;;;;3.36;100.00;101056.75;5027712;28;20509;-73
2024/03/03 06:07:42;;;;;;;32.40;30.20;;;;;;;3.73;100.00;101064.47;5026832;28;20049;-72
2024/03/03 06:10:10;;;;;;;33.63;30.95;;;;;;;3.79;100.00;101070.94;5029821;28;20041;-73
2024/03/03 06:12:37;;;;;;;31.90;29.80;;;;;;;3.96;100.00;101063.97;5028174;28;20065;-73
2024/03/03 06:15:05;;;;;;;31.02;28.92;;;;;;;4.08;100.00;101063.53;5025936;28;20773;-73
2024/03/03 06:17:32;;;;;;;35.58;33.17;;;;;;;4.21;100.00;101067.59;5030732;28;20054;-73
2024/03/03 06:19:59;;;;;;;36.17;33.67;;;;;;;4.23;100.00;101060.34;5028563;28;20056;-71
2024/03/03 06:22:26;;;;;;;35.15;31.90;;;;;;;3.98;100.00;101062.00;5029552;28;20775;-71
2024/03/03 06:24:57;;;;;;;36.08;33.05;;;;;;;4.23;100.00;101058.53;5028547;28;20049;-71
2024/03/03 06:27:26;;;;;;;43.88;40.83;;;;;;;4.50;100.00;101065.41;5028712;28;20045;-71
2024/03/03 06:29:53;;;;;;;40.08;37.58;;;;;;;4.55;100.00;101065.78;5028089;28;20136;-70
2024/03/03 06:32:24;;;;;;;34.80;32.13;;;;;;;4.62;100.00;101059.88;5028781;28;20050;-70
2024/03/03 06:34:52;;;;;;;33.25;31.05;;;;;;;4.38;100.00;101060.59;5024987;28;20443;-71
2024/03/03 06:37:20;;;;;;;35.22;32.85;;;;;;;4.70;100.00;101060.75;5028268;28;20058;-70
2024/03/03 06:39:48;;;;;;;34.55;32.25;;;;;;;4.77;100.00;101060.91;5028452;28;20045;-71
2024/03/03 06:42:18;;;;;;;40.97;38.10;;;;;;;5.26;100.00;101066.31;5028108;28;20549;-70
2024/03/03 06:44:47;;;;;;;38.53;35.83;;;;;;;5.44;100.00;101066.16;5028521;28;20105;-70
2024/03/03 06:47:14;;;;;;;37.35;34.70;;;;;;;5.03;100.00;101056.41;5025741;28;20691;-71
2024/03/03 06:49:42;;;;;;;36.55;33.90;;;;;;;5.71;100.00;101062.38;5028727;28;20049;-71
2024/03/03 06:52:10;;;;;;;37.28;34.50;;;;;;;5.50;100.00;101063.69;5029006;28;20136;-71
2024/03/03 06:54:39;;;;;;;41.53;38.30;;;;;;;5.79;100.00;101056.28;5028730;28;20057;-71
2024/03/03 06:57:14;;;;;;;41.83;38.85;;;;;;;5.88;100.00;101047.38;5028086;28;20049;-71
2024/03/03 06:59:46;;;;;;;38.28;35.67;;;;;;;6.30;100.00;101051.63;5028386;28;20136;-70
2024/03/03 07:02:15;;;;;;;36.55;33.92;;;;;;;6.13;100.00;101051.63;5026787;28;20922;-71
2024/03/03 07:04:42;;;;;;;36.60;33.28;;;;;;;6.45;100.00;101049.91;5025484;28;20517;-73
2024/03/03 07:07:09;;;;;;;37.00;33.88;;;;;;;6.87;100.00;101051.38;5025823;28;20571;-71
2024/03/03 07:09:36;;;;;;;36.60;34.10;;;;;;;6.71;100.00;101054.09;5028233;28;20058;-73
2024/03/03 07:12:04;;;;;;;35.20;32.60;;;;;;;6.87;100.00;101051.38;5029087;28;20555;-71
2024/03/03 07:14:32;;;;;;;34.63;32.28;;;;;;;6.91;100.00;101052.66;5027059;28;20088;-71
2024/03/03 07:17:00;;;;;;;34.58;31.98;;;;;;;7.06;100.00;101048.28;5024500;28;20053;-71
2024/03/03 07:19:28;;;;;;;35.30;32.00;;;;;;;7.16;100.00;101052.50;5016364;28;20049;-73
2024/03/03 07:21:54;;;;;;;37.20;34.35;;;;;;;7.32;100.00;101060.31;5020576;28;20041;-72
2024/03/03 07:24:21;;;;;;;38.10;35.45;;;;;;;7.34;100.00;101063.63;5027532;28;20057;-71
2024/03/03 07:26:48;;;;;;;35.75;33.35;;;;;;;7.43;100.00;101062.56;5025635;28;20505;-73
2024/03/03 07:29:15;;;;;;;36.90;34.40;;;;;;;7.29;100.00;101060.66;5027105;28;20049;-73
2024/03/03 07:31:42;;;;;;;39.75;36.72;;;;;;;7.44;100.00;101058.91;5019982;28;20536;-73
2024/03/03 07:34:10;;;;;;;37.78;35.17;;;;;;;7.56;100.00;101064.59;5026643;28;20049;-73
2024/03/03 07:36:37;;;;;;;38.45;35.95;;;;;;;7.77;100.00;101056.81;5026829;28;20056;-73
2024/03/03 07:39:04;;;;;;;39.40;36.80;;;;;;;7.90;100.00;101052.75;5030063;28;20052;-71
2024/03/03 07:41:31;;;;;;;43.30;40.15;;;;;;;8.10;100.00;101059.16;5028573;28;20477;-73
2024/03/03 07:43:58;;;;;;;41.38;38.30;;;;;;;8.06;100.00;101059.72;5025321;28;20053;-71
2024/03/03 07:46:25;;;;;;;37.85;35.35;;;;;;;8.26;100.00;101064.28;5027385;28;20057;-71
2024/03/03 07:48:52;;;;;;;39.45;35.92;;;;;;;8.35;100.00;101064.19;5027914;28;20076;-71
2024/03/03 07:51:21;;;;;;;34.25;31.35;;;;;;;8.32;100.00;101064.53;5027963;28;20049;-73
2024/03/03 07:53:48;;;;;;;31.60;29.25;;;;;;;8.14;100.00;101067.53;5032809;28;20136;-73
2024/03/03 07:56:15;;;;;;;31.52;29.42;;;;;;;8.42;100.00;101055.38;5028888;28;20428;-70
2024/03/03 07:58:45;;;;;;;36.40;34.10;;;;;;;8.68;100.00;101064.66;5027774;28;20076;-71
2024/03/03 08:01:13;;;;;;;37.30;34.67;;;;;;;9.05;100.00;101062.88;5028441;28;20489;-71
2024/03/03 08:03:40;;;;;;;34.40;31.90;;;;;;;9.21;100.00;101057.31;5021866;28;20053;-71
2024/03/03 08:06:11;;;;;;;37.03;34.17;;;;;;;9.06;100.00;101062.66;5025273;28;20046;-71
2024/03/03 08:08:41;;;;;;;39.60;36.80;;;;;;;9.36;100.00;101057.25;5026720;28;20057;-71
2024/03/03 08:11:08;;;;;;;34.85;32.75;;;;;;;9.40;100.00;101055.84;5007493;28;20057;-71
2024/03/03 08:13:36;;;;;;;36.30;34.10;;;;;;;9.24;100.00;101061.41;5023318;28;20508;-71
2024/03/03 08:16:03;;;;;;;36.33;34.13;;;;;;;9.48;100.00;101055.75;5022237;28;20053;-71
2024/03/03 08:18:31;;;;;;;38.30;35.88;;;;;;;9.48;100.00;101060.22;5028878;28;20058;-72
2024/03/03 08:20:58;;;;;;;36.20;33.63;;;;;;;9.69;100.00;101064.69;5024023;28;20132;-73
2024/03/03 08:23:25;;;;;;;36.58;34.35;;;;;;;9.89;100.00;101062.19;5029051;28;20124;-73
2024/03/03 08:25:53;;;;;;;37.25;34.95;;;;;;;10.46;100.00;101059.31;5029321;28;20057;-71
2024/03/03 08:28:20;;;;;;;35.40;33.20;;;;;;;10.07;100.00;101052.72;5020342;28;20420;-71
2024/03/03 08:30:47;;;;;;;34.88;32.63;;;;;;;10.15;100.00;101048.28;5026701;28;20080;-71
2024/03/03 08:33:14;;;;;;;34.22;32.03;;;;;;;10.11;100.00;101050.50;5012968;28;20061;-73
2024/03/03 08:35:42;;;;;;;36.25;33.95;;;;;;;10.11;100.00;101047.84;5019662;28;20528;-71
2024/03/03 08:38:12;;;;;;;39.28;36.88;;;;;;;9.78;100.00;101053.75;5028155;28;20497;-71
2024/03/03 08:40:39;;;;;;;41.10;38.60;;;;;;;10.88;100.00;101057.44;5030870;28;20432;-71
2024/03/03 08:43:08;;;;;;;40.10;37.60;;;;;;;9.56;100.00;101057.41;5023236;28;20060;-71
2024/03/03 08:45:34;;;;;;;41.65;39.05;;;;;;;9.26;100.00;101054.09;5028381;28;20523;-73
2024/03/03 08:48:01;;;;;;;41.22;38.65;;;;;;;10.72;100.00;101050.66;5027915;28;20042;-73
2024/03/03 08:50:28;;;;;;;41.53;39.03;;;;;;;10.44;100.00;101057.84;5025597;28;20735;-73
2024/03/03 08:52:55;;;;;;;40.50;37.95;;;;;;;11.21;100.00;101046.06;5023858;28;20060;-73
2024/03/03 08:55:23;;;;;;;44.47;40.75;;;;;;;10.63;100.00;101049.19;5033791;28;20049;-73
2024/03/03 08:57:50;;;;;;;43.75;40.80;;;;;;;11.43;100.00;101046.72;5022419;28;20058;-73
2024/03/03 09:00:19;;;;;;;41.88;39.20;;;;;;;12.18;100.00;101043.84;5029756;28;20727;-73
2024/03/03 09:02:46;;;;;;;42.97;40.38;;;;;;;12.08;100.00;101045.09;5023940;28;20052;-73
2024/03/03 09:05:32;;;;;;;41.53;38.92;;;;;;;12.15;100.00;101043.22;5024877;28;20053;-69
2024/03/03 09:07:59;;;;;;;41.65;39.17;;;;;;;12.02;100.00;101040.59;5021533;28;20041;-73
2024/03/03 09:10:26;;;;;;;42.70;40.30;;;;;;;12.36;100.00;101044.81;5027337;28;20055;-73
2024/03/03 09:12:53;;;;;;;32.90;30.50;;;;;;;12.94;100.00;101045.81;5027451;28;20436;-73
2024/03/03 09:15:21;;;;;;;33.90;31.70;;;;;;;13.05;100.00;101050.47;5028230;28;20055;-73
2024/03/03 09:17:48;;;;;;;33.47;31.17;;;;;;;13.19;100.00;101044.03;5021755;28;20819;-72
2024/03/03 09:20:15;;;;;;;34.55;31.85;;;;;;;12.73;100.00;101042.41;5025282;28;20053;-73
2024/03/03 09:22:42;;;;;;;33.63;31.33;;;;;;;13.23;100.00;101041.75;5030256;28;20439;-73
2024/03/03 09:25:09;;;;;;;35.20;32.53;;;;;;;12.13;100.00;101036.47;5028813;28;20057;-72
2024/03/03 09:27:37;;;;;;;35.45;33.00;;;;;;;12.95;100.00;101036.75;5031282;28;20049;-71
2024/03/03 09:30:04;;;;;;;36.22;33.75;;;;;;;11.05;100.00;101030.50;5028330;28;20053;-71
2024/03/03 09:32:33;;;;;;;32.53;30.20;;;;;;;11.47;100.00;101032.00;5027678;28;20050;-72
2024/03/03 09:34:59;;;;;;;33.97;31.67;;;;;;;12.67;100.00;101029.13;5017040;28;20523;-73
2024/03/03 09:37:28;;;;;;;46.05;43.15;;;;;;;13.34;100.00;101030.38;5025708;28;20058;-71
2024/03/03 09:39:55;;;;;;;48.60;45.20;;;;;;;13.31;100.00;101030.81;5030735;28;20049;-71
2024/03/03 09:42:22;;;;;;;47.00;44.10;;;;;;;12.80;100.00;101029.88;5032206;28;20049;-73
2024/03/03 09:44:52;;;;;;;47.60;44.70;;;;;;;14.74;100.00;101026.38;5030943;28;20715;-73
2024/03/03 09:47:20;;;;;;;36.78;34.38;;;;;;;14.52;100.00;101020.66;5030329;28;20057;-73
2024/03/03 09:49:49;;;;;;;35.53;33.13;;;;;;;13.36;100.00;101027.53;5030905;28;20505;-73
2024/03/03 09:52:17;;;;;;;40.60;37.90;;;;;;;13.37;100.00;101023.81;5030971;28;20076;-73
2024/03/03 09:54:53;;;;;;;38.53;35.78;;;;;;;12.25;100.00;101031.31;5029977;28;20060;-73
2024/03/03 09:57:23;;;;;;;34.15;31.65;;;;;;;13.31;100.00;101030.81;5029619;28;20107;-73
2024/03/03 09:59:53;;;;;;;35.70;33.33;;;;;;;13.96;100.00;101017.16;5029601;28;20551;-71
2024/03/03 10:02:24;;;;;;;38.97;36.45;;;;;;;13.87;100.00;101029.16;5030643;28;20045;-73
2024/03/03 10:04:54;;;;;;;46.25;43.45;;;;;;;13.96;100.00;101017.97;5030737;28;20051;-73
2024/03/03 10:07:23;;;;;;;51.63;48.63;;;;;;;13.54;100.00;101029.44;5029979;28;20055;-73
2024/03/03 10:10:00;;;;;;;50.15;47.22;;;;;;;13.90;100.00;101010.03;5036826;28;20061;-73
2024/03/03 10:12:28;;;;;;;47.45;44.55;;;;;;;14.27;100.00;101012.72;5027234;28;20445;-73
2024/03/03 10:14:57;;;;;;;51.28;47.65;;;;;;;14.99;100.00;101011.00;5024006;28;20061;-73
2024/03/03 10:17:23;;;;;;;50.13;46.92;;;;;;;15.28;100.00;101008.50;5024361;28;20046;-73
2024/03/03 10:19:52;;;;;;;47.70;44.70;;;;;;;13.45;100.00;101011.03;5036662;28;20460;-73
2024/03/03 10:22:20;;;;;;;47.72;44.70;;;;;;;14.35;100.00;101009.75;5031005;28;20152;-73
2024/03/03 10:25:09;;;;;;;48.28;45.28;;;;;;;13.27;100.00;101005.63;5030011;28;20054;-73
2024/03/03 10:27:36;;;;;;;52.95;49.63;;;;;;;14.79;100.00;101002.41;5027687;28;20425;-73
2024/03/03 10:30:04;;;;;;;47.03;44.13;;;;;;;15.46;100.00;100991.53;5023880;28;20080;-73
2024/03/03 10:32:31;;;;;;;50.30;47.10;;;;;;;15.76;100.00;100988.78;5016187;28;20050;-73
2024/03/03 10:35:00;;;;;;;54.65;51.35;;;;;;;17.04;100.00;100986.00;5035551;28;20057;-73
2024/03/03 10:37:27;;;;;;;53.63;50.33;;;;;;;17.24;100.00;100988.19;5023198;28;20550;-70
2024/03/03 10:39:54;;;;;;;51.33;48.10;;;;;;;17.69;100.00;100985.41;5026835;28;20536;-71
2024/03/03 10:42:21;;;;;;;53.28;49.97;;;;;;;17.92;100.00;100983.63;5022646;28;20061;-69
2024/03/03 10:44:48;;;;;;;55.30;51.90;;;;;;;16.30;100.00;100980.56;5028847;28;20061;-71
2024/03/03 10:47:17;;;;;;;54.47;51.20;;;;;;;17.40;100.00;100974.78;5027858;28;20100;-72
2024/03/03 10:49:45;;;;;;;54.15;50.78;;;;;;;17.08;100.00;100969.16;5021013;28;20075;-70
2024/03/03 10:52:14;;;;;;;55.42;51.53;;;;;;;16.36;100.00;100971.56;5028124;28;20543;-70
2024/03/03 10:54:42;;;;;;;54.30;51.00;;;;;;;16.11;100.00;100956.59;5027069;28;20065;-70
2024/03/03 10:57:19;;;;;;;52.70;49.47;;;;;;;16.63;100.00;100961.09;5025149;28;20041;-70
2024/03/03 10:59:47;;;;;;;53.28;50.15;;;;;;;16.41;100.00;100960.94;5027568;28;20552;-71
2024/03/03 11:02:15;;;;;;;54.90;51.47;;;;;;;16.09;100.00;100963.25;5029748;28;20042;-72
2024/03/03 11:04:43;;;;;;;52.40;49.10;;;;;;;16.55;100.00;100951.56;5029118;28;20068;-72
2024/03/03 11:07:11;;;;;;;58.08;54.47;;;;;;;16.91;100.00;100954.91;5023269;28;20061;-72
2024/03/03 11:09:43;;;;;;;58.42;54.92;;;;;;;16.89;100.00;100962.41;5015532;28;20609;-74
2024/03/03 11:12:18;;;;;;;55.78;52.17;;;;;;;18.07;100.00;100941.63;5023028;28;20746;-72